Time;durP1;ratioP1;P1;durP2;ratioP2;P2;SDS_P1;SDS_P2;PMS_P1;PMS_P2;Temp;Humidity;BMP_temperature;BMP_pressure;BME280_temperature;BME280_humidity;BME280_pressure;Samples;Min_cycle;Max_cycle;Signal;HPM_P1;HPM_P2
2021/01/29 00:00:32;;;;;;;2.03;0.90;;;11.50;99.90;;;;;;5097682;28;20102;-69
2021/01/29 00:03:01;;;;;;;2.60;0.93;;;11.50;99.90;;;;;;5100144;28;20070;-69
2021/01/29 00:05:32;;;;;;;2.90;1.05;;;11.50;99.90;;;;;;5102690;28;20145;-69
2021/01/29 00:07:59;;;;;;;3.72;0.77;;;11.50;99.90;;;;;;5102987;28;20426;-69
2021/01/29 00:10:26;;;;;;;2.03;0.77;;;11.50;99.90;;;;;;5099362;28;20743;-69
2021/01/29 00:12:53;;;;;;;4.90;1.40;;;11.50;99.90;;;;;;5111223;28;20053;-69
2021/01/29 00:15:21;;;;;;;4.85;1.17;;;11.50;99.90;;;;;;5111036;28;20046;-69
2021/01/29 00:17:47;;;;;;;3.08;1.27;;;11.50;99.90;;;;;;5107742;28;20048;-69
2021/01/29 00:20:20;;;;;;;5.82;1.20;;;11.50;99.90;;;;;;5110672;28;20048;-69
2021/01/29 00:22:49;;;;;;;5.70;1.15;;;11.50;99.90;;;;;;5110811;28;20066;-69
2021/01/29 00:25:24;;;;;;;10.57;1.52;;;11.50;99.90;;;;;;5106225;27;20375;-70
2021/01/29 00:27:51;;;;;;;6.05;1.20;;;11.50;99.90;;;;;;5099226;28;20059;-70
2021/01/29 00:30:19;;;;;;;3.00;0.98;;;11.40;99.90;;;;;;5111394;28;20482;-69
2021/01/29 00:32:46;;;;;;;1.85;0.80;;;11.40;99.90;;;;;;5111830;28;20494;-69
2021/01/29 00:35:15;;;;;;;3.25;0.70;;;11.50;99.90;;;;;;5110715;28;20052;-70
2021/01/29 00:37:41;;;;;;;3.50;1.00;;;11.50;99.90;;;;;;5107326;28;20101;-70
2021/01/29 00:40:09;;;;;;;1.65;0.70;;;11.50;99.90;;;;;;5099436;27;20052;-70
2021/01/29 00:42:35;;;;;;;3.00;0.70;;;11.50;99.90;;;;;;5114160;28;20083;-69
2021/01/29 00:45:05;;;;;;;1.50;0.80;;;11.60;99.90;;;;;;5109045;28;20529;-69
2021/01/29 00:47:32;;;;;;;1.52;0.73;;;11.50;99.90;;;;;;5098038;28;20052;-69
2021/01/29 00:49:58;;;;;;;3.70;0.77;;;11.60;99.90;;;;;;5109590;28;20039;-70
2021/01/29 00:52:25;;;;;;;6.38;1.10;;;11.50;99.90;;;;;;5103284;28;20082;-71
2021/01/29 00:54:51;;;;;;;1.35;0.60;;;11.50;99.90;;;;;;5112384;28;20104;-70
2021/01/29 00:57:17;;;;;;;2.72;0.65;;;11.40;99.90;;;;;;5109558;28;20046;-70
2021/01/29 00:59:44;;;;;;;2.05;0.70;;;11.30;99.90;;;;;;5104549;28;20327;-70
2021/01/29 01:02:10;;;;;;;2.13;0.60;;;11.30;99.90;;;;;;5111104;28;20452;-70
2021/01/29 01:04:36;;;;;;;1.73;0.75;;;11.30;99.90;;;;;;5110793;28;20075;-70
2021/01/29 01:07:03;;;;;;;2.88;0.90;;;11.20;99.90;;;;;;5110974;28;20092;-70
2021/01/29 01:09:29;;;;;;;3.10;0.85;;;11.30;99.90;;;;;;5108354;28;20475;-69
2021/01/29 01:11:56;;;;;;;1.33;0.82;;;11.30;99.90;;;;;;5109422;28;20115;-70
2021/01/29 01:14:22;;;;;;;2.72;0.70;;;11.30;99.90;;;;;;5109885;28;20051;-69
2021/01/29 01:16:50;;;;;;;5.40;0.90;;;11.40;99.90;;;;;;5108847;27;20479;-70
2021/01/29 01:19:16;;;;;;;2.97;0.85;;;11.40;99.90;;;;;;5107448;28;20130;-70
2021/01/29 01:21:43;;;;;;;2.45;0.68;;;11.40;99.90;;;;;;5108967;28;20083;-70
2021/01/29 01:24:10;;;;;;;1.50;0.77;;;11.40;99.90;;;;;;5106580;28;20087;-70
2021/01/29 01:26:36;;;;;;;3.00;0.50;;;11.40;99.90;;;;;;5105266;28;20048;-70
2021/01/29 01:29:03;;;;;;;1.52;0.70;;;11.40;99.90;;;;;;5104342;28;20764;-69
2021/01/29 01:31:29;;;;;;;2.33;1.00;;;11.30;99.90;;;;;;5100750;28;20101;-72
2021/01/29 01:33:56;;;;;;;7.65;1.00;;;11.30;99.90;;;;;;5103969;27;20157;-69
2021/01/29 01:36:22;;;;;;;1.08;0.70;;;11.30;99.90;;;;;;5098538;28;20101;-70
2021/01/29 01:38:48;;;;;;;2.00;0.75;;;11.30;99.90;;;;;;5102758;27;20036;-70
2021/01/29 01:41:15;;;;;;;4.40;1.00;;;11.10;99.90;;;;;;5102289;28;20051;-69
2021/01/29 01:43:42;;;;;;;2.38;0.80;;;11.20;99.90;;;;;;5103943;28;20109;-70
2021/01/29 01:46:14;;;;;;;1.20;0.68;;;11.20;99.90;;;;;;5103091;28;20075;-69
2021/01/29 01:48:46;;;;;;;7.22;0.88;;;11.20;99.90;;;;;;5100889;28;20047;-69
2021/01/29 01:51:22;;;;;;;2.67;0.80;;;11.10;99.90;;;;;;5104514;27;20075;-70
2021/01/29 01:53:51;;;;;;;2.63;0.90;;;11.10;99.90;;;;;;5103301;27;20096;-70
2021/01/29 01:56:28;;;;;;;2.77;0.70;;;11.00;99.90;;;;;;5101532;28;20082;-69
2021/01/29 01:59:00;;;;;;;2.75;0.80;;;10.90;99.90;;;;;;5105025;27;20078;-70
2021/01/29 02:01:27;;;;;;;2.78;1.00;;;10.90;99.90;;;;;;5102936;27;20052;-70
2021/01/29 02:03:56;;;;;;;1.85;0.88;;;10.80;99.90;;;;;;5106130;28;20056;-70
2021/01/29 02:06:23;;;;;;;2.20;0.85;;;10.80;99.90;;;;;;5100637;28;20048;-69
2021/01/29 02:08:52;;;;;;;2.22;0.90;;;10.70;99.90;;;;;;5099592;28;20544;-70
2021/01/29 02:11:21;;;;;;;3.60;0.90;;;10.60;99.90;;;;;;5103734;28;20039;-69
2021/01/29 02:13:48;;;;;;;6.00;1.35;;;10.50;99.90;;;;;;5099267;28;20078;-70
2021/01/29 02:16:23;;;;;;;2.00;0.90;;;10.60;99.90;;;;;;5108436;28;20044;-69
2021/01/29 02:19:16;;;;;;;2.70;1.00;;;10.60;99.90;;;;;;5103729;28;20134;-69
2021/01/29 02:22:05;;;;;;;4.45;0.93;;;10.50;99.90;;;;;;5099930;27;20554;-70
2021/01/29 02:24:52;;;;;;;4.25;1.20;;;10.50;99.90;;;;;;5101782;28;20133;-69
2021/01/29 02:27:42;;;;;;;4.50;1.25;;;10.40;99.90;;;;;;5107046;28;20096;-69
2021/01/29 02:30:27;;;;;;;;;;;10.40;99.90;;;;;;5102977;28;20094;-69
2021/01/29 02:33:24;;;;;;;1.52;1.00;;;10.40;99.90;;;;;;5109533;28;19924;-69
2021/01/29 02:36:09;;;;;;;1.73;0.90;;;10.40;99.90;;;;;;5109431;28;20130;-68
2021/01/29 02:38:44;;;;;;;1.90;0.93;;;10.50;99.90;;;;;;5102428;28;20097;-68
2021/01/29 02:41:38;;;;;;;2.67;1.00;;;10.50;99.90;;;;;;5104935;28;20047;-68
2021/01/29 02:44:43;;;;;;;1.27;0.80;;;10.50;99.90;;;;;;5111970;28;20086;-68
2021/01/29 02:47:25;;;;;;;3.50;1.15;;;10.50;99.90;;;;;;5098642;28;20052;-68
2021/01/29 02:49:51;;;;;;;2.53;1.00;;;10.50;99.90;;;;;;5106064;28;20043;-68
2021/01/29 02:52:27;;;;;;;2.58;1.08;;;10.50;99.90;;;;;;5092952;28;20548;-69
2021/01/29 02:55:15;;;;;;;1.80;1.08;;;10.50;99.90;;;;;;5103884;27;20175;-69
2021/01/29 02:58:17;;;;;;;1.55;1.13;;;10.50;99.90;;;;;;5103238;28;20475;-68
2021/01/29 03:00:59;;;;;;;1.33;1.00;;;10.60;99.90;;;;;;5097600;28;20093;-68
2021/01/29 03:03:35;;;;;;;1.50;1.10;;;10.50;99.90;;;;;;5111819;28;20450;-69
2021/01/29 03:06:11;;;;;;;1.30;0.93;;;10.50;99.90;;;;;;5107311;28;20424;-69
2021/01/29 03:08:53;;;;;;;1.98;1.10;;;10.60;99.90;;;;;;5105180;28;20036;-70
2021/01/29 03:11:31;;;;;;;2.47;0.93;;;10.60;99.90;;;;;;5107657;28;20078;-69
2021/01/29 03:14:03;;;;;;;1.80;0.95;;;10.50;99.90;;;;;;5101047;28;20048;-68
2021/01/29 03:16:58;;;;;;;4.18;1.42;;;10.60;99.90;;;;;;5105523;28;20056;-69
2021/01/29 03:19:31;;;;;;;1.67;0.93;;;10.60;99.90;;;;;;5106612;28;20138;-69
2021/01/29 03:22:11;;;;;;;2.22;1.30;;;10.70;99.90;;;;;;5110887;28;20079;-69
2021/01/29 03:24:43;;;;;;;1.73;1.25;;;10.60;99.90;;;;;;5103194;28;20054;-70
2021/01/29 03:27:17;;;;;;;0.93;0.85;;;10.50;99.90;;;;;;5106830;28;20146;-70
2021/01/29 03:29:48;;;;;;;1.75;1.00;;;10.60;99.90;;;;;;5108387;28;20044;-68
2021/01/29 03:32:15;;;;;;;2.85;1.17;;;10.50;99.90;;;;;;5100709;28;20529;-69
2021/01/29 03:35:01;;;;;;;0.80;0.80;;;10.50;99.90;;;;;;5106613;28;20039;-68
2021/01/29 03:37:39;;;;;;;0.73;0.70;;;10.50;99.90;;;;;;5105710;28;20100;-69
2021/01/29 03:40:07;;;;;;;1.80;0.98;;;10.60;99.90;;;;;;5101983;28;20055;-69
2021/01/29 03:42:56;;;;;;;0.82;0.82;;;10.50;99.90;;;;;;5110119;28;20086;-68
2021/01/29 03:45:30;;;;;;;1.15;0.98;;;10.50;99.90;;;;;;5104615;28;20082;-69
2021/01/29 03:48:06;;;;;;;1.00;0.90;;;10.50;99.90;;;;;;5101883;28;20127;-68
2021/01/29 03:50:51;;;;;;;0.85;0.85;;;10.50;99.90;;;;;;5097781;28;20771;-68
2021/01/29 03:53:49;;;;;;;1.27;1.05;;;10.60;99.90;;;;;;5102462;28;20124;-68
2021/01/29 03:56:43;;;;;;;3.28;0.90;;;10.60;99.90;;;;;;5107980;28;20214;-68
2021/01/29 03:59:46;;;;;;;2.80;1.00;;;10.60;99.90;;;;;;5104593;28;20146;-69
2021/01/29 04:03:05;;;;;;;1.17;0.90;;;10.60;99.90;;;;;;5095649;28;20075;-68
2021/01/29 04:05:44;;;;;;;1.00;0.90;;;10.60;99.90;;;;;;5091872;28;20072;-68
2021/01/29 04:08:20;;;;;;;1.38;1.00;;;10.60;99.90;;;;;;5104889;28;20055;-69
2021/01/29 04:10:49;;;;;;;0.85;0.85;;;10.60;99.90;;;;;;5097421;28;20048;-68
2021/01/29 04:13:26;;;;;;;4.03;1.40;;;10.70;99.90;;;;;;5108352;28;20040;-69
2021/01/29 04:15:54;;;;;;;1.45;0.98;;;10.70;99.90;;;;;;5105072;28;20482;-69
2021/01/29 04:18:29;;;;;;;1.25;0.82;;;10.70;99.90;;;;;;5106019;28;20108;-69
2021/01/29 04:21:04;;;;;;;2.10;1.10;;;10.70;99.90;;;;;;5111068;28;20067;-69
2021/01/29 04:23:41;;;;;;;1.20;0.95;;;10.70;99.90;;;;;;5101334;28;20071;-70
2021/01/29 04:26:16;;;;;;;2.40;0.90;;;10.70;99.90;;;;;;5108259;28;20079;-69
2021/01/29 04:28:47;;;;;;;2.72;0.90;;;10.70;99.90;;;;;;5100089;28;20549;-69
2021/01/29 04:31:17;;;;;;;1.38;0.85;;;10.70;99.90;;;;;;5103322;28;20089;-70
2021/01/29 04:33:49;;;;;;;1.20;0.88;;;10.80;99.90;;;;;;5109098;28;20071;-70
2021/01/29 04:36:18;;;;;;;1.20;0.90;;;10.80;99.90;;;;;;5108261;28;20090;-70
2021/01/29 04:38:49;;;;;;;2.47;1.00;;;10.80;99.90;;;;;;5104794;28;20530;-70
2021/01/29 04:41:31;;;;;;;3.08;0.85;;;10.80;99.90;;;;;;5110362;28;20112;-69
2021/01/29 04:44:34;;;;;;;1.00;0.80;;;10.80;99.90;;;;;;5108770;28;20471;-69
2021/01/29 04:47:24;;;;;;;2.63;0.88;;;10.80;99.90;;;;;;5106844;28;20130;-70
2021/01/29 04:49:57;;;;;;;1.95;1.17;;;10.80;99.90;;;;;;5099967;28;20455;-70
2021/01/29 04:52:52;;;;;;;0.90;0.80;;;10.80;99.90;;;;;;5108986;27;20554;-70
2021/01/29 04:55:49;;;;;;;1.10;0.70;;;10.90;99.90;;;;;;5111703;28;20058;-70
2021/01/29 04:58:17;;;;;;;2.50;0.70;;;10.90;99.90;;;;;;5111678;28;20399;-70
2021/01/29 05:01:00;;;;;;;1.13;0.77;;;10.80;99.90;;;;;;5109150;28;20143;-70
2021/01/29 05:03:51;;;;;;;0.75;0.73;;;10.80;99.90;;;;;;5108939;28;20047;-70
2021/01/29 05:06:35;;;;;;;;;;;10.70;99.90;;;;;;5103950;28;20047;-70
2021/01/29 05:09:08;;;;;;;1.38;0.50;;;10.70;99.90;;;;;;5112143;28;19942;-70
2021/01/29 05:12:08;;;;;;;1.30;0.52;;;10.70;99.90;;;;;;5107283;28;20108;-70
2021/01/29 05:14:55;;;;;;;0.63;0.60;;;10.70;99.90;;;;;;5100815;28;20368;-70
2021/01/29 05:17:49;;;;;;;1.10;0.60;;;10.60;99.90;;;;;;5109943;28;20104;-70
2021/01/29 05:20:56;;;;;;;0.47;0.47;;;10.70;99.90;;;;;;5109773;28;20135;-69
2021/01/29 05:23:40;;;;;;;0.65;0.35;;;10.60;99.90;;;;;;5109716;28;20047;-70
2021/01/29 05:26:12;;;;;;;1.73;0.52;;;10.40;99.90;;;;;;5102439;28;20047;-70
2021/01/29 05:29:12;;;;;;;1.95;0.68;;;10.40;99.90;;;;;;5107271;28;20044;-70
2021/01/29 05:32:03;;;;;;;1.75;0.50;;;10.40;99.90;;;;;;5108854;28;20444;-70
2021/01/29 05:34:37;;;;;;;1.92;0.47;;;10.50;99.90;;;;;;5109113;28;20055;-69
2021/01/29 05:37:22;;;;;;;0.90;0.70;;;10.50;99.90;;;;;;5110268;28;20449;-69
2021/01/29 05:40:25;;;;;;;1.35;0.60;;;10.40;99.90;;;;;;5111796;27;20470;-70
2021/01/29 05:43:10;;;;;;;0.40;0.40;;;10.40;99.90;;;;;;5108914;28;20059;-70
2021/01/29 05:45:57;;;;;;;1.30;0.60;;;10.40;99.90;;;;;;5106752;28;20479;-69
2021/01/29 05:48:44;;;;;;;0.65;0.50;;;10.40;99.90;;;;;;5111102;28;20097;-70
2021/01/29 05:51:21;;;;;;;1.00;0.63;;;10.40;99.90;;;;;;5107498;28;20532;-70
2021/01/29 05:54:15;;;;;;;0.93;0.40;;;10.30;99.90;;;;;;5109649;28;20070;-69
2021/01/29 05:57:20;;;;;;;0.45;0.40;;;10.40;99.90;;;;;;5106783;28;20471;-69
2021/01/29 06:00:01;;;;;;;0.38;0.38;;;10.50;99.90;;;;;;5110462;28;20048;-69
2021/01/29 06:02:55;;;;;;;0.57;0.38;;;10.50;99.90;;;;;;5106203;28;20051;-70
2021/01/29 06:05:33;;;;;;;0.88;0.50;;;10.50;99.90;;;;;;5107209;28;20047;-69
2021/01/29 06:08:54;;;;;;;1.00;0.43;;;10.50;99.90;;;;;;5111376;28;20079;-69
2021/01/29 06:12:01;;;;;;;0.52;0.40;;;10.50;99.90;;;;;;5086864;28;20079;-69
2021/01/29 06:14:52;;;;;;;1.85;0.50;;;10.60;99.90;;;;;;5107817;28;20129;-70
2021/01/29 06:17:42;;;;;;;0.30;0.30;;;10.60;99.90;;;;;;5106506;27;20075;-70
2021/01/29 06:20:36;;;;;;;0.35;0.30;;;10.80;99.90;;;;;;5109155;28;20494;-70
2021/01/29 06:23:47;;;;;;;0.25;0.20;;;11.20;99.90;;;;;;5110734;28;20108;-69
2021/01/29 06:26:13;;;;;;;0.38;0.30;;;11.70;99.90;;;;;;5086897;28;20145;-70
2021/01/29 06:29:13;;;;;;;1.42;0.20;;;11.80;99.90;;;;;;5101739;28;20047;-70
2021/01/29 06:32:09;;;;;;;0.20;0.20;;;11.80;99.90;;;;;;5106779;28;20075;-71
2021/01/29 06:35:13;;;;;;;0.47;0.30;;;11.90;99.90;;;;;;5111318;28;20513;-71
2021/01/29 06:37:42;;;;;;;0.38;0.38;;;11.80;99.90;;;;;;5108308;28;20077;-70
2021/01/29 06:40:20;;;;;;;0.20;0.20;;;11.80;99.90;;;;;;5103954;28;20055;-71
2021/01/29 06:43:16;;;;;;;0.30;0.30;;;11.70;99.90;;;;;;5109466;28;20083;-71
2021/01/29 06:46:16;;;;;;;1.05;0.50;;;11.70;99.90;;;;;;5107439;28;20496;-71
2021/01/29 06:48:47;;;;;;;0.68;0.40;;;11.60;99.90;;;;;;5108096;28;20071;-70
2021/01/29 06:51:38;;;;;;;0.30;0.30;;;11.60;99.90;;;;;;5109705;28;20166;-70
2021/01/29 06:54:46;;;;;;;0.70;0.50;;;11.60;99.90;;;;;;5109332;28;20082;-70
2021/01/29 06:57:47;;;;;;;0.68;0.30;;;11.60;99.90;;;;;;5086487;28;20079;-70
2021/01/29 07:00:52;;;;;;;1.63;0.82;;;11.50;99.90;;;;;;5105405;28;20082;-69
2021/01/29 07:03:43;;;;;;;0.43;0.30;;;11.50;99.90;;;;;;5108579;28;20071;-69
2021/01/29 07:06:36;;;;;;;0.60;0.50;;;11.50;99.90;;;;;;5109073;28;20145;-71
2021/01/29 07:09:51;;;;;;;0.70;0.32;;;11.40;99.90;;;;;;5106164;28;20118;-71
2021/01/29 07:12:40;;;;;;;1.10;0.30;;;11.40;99.90;;;;;;5060607;28;20062;-71
2021/01/29 07:15:47;;;;;;;0.90;0.47;;;11.40;99.90;;;;;;5068153;28;20073;-70
2021/01/29 07:18:47;;;;;;;0.88;0.38;;;11.30;99.90;;;;;;5108176;28;20083;-70
2021/01/29 07:21:26;;;;;;;1.10;0.40;;;11.30;99.90;;;;;;5106559;28;20047;-70
2021/01/29 07:23:55;;;;;;;0.55;0.30;;;11.30;99.90;;;;;;5105861;28;20052;-71
2021/01/29 07:26:54;;;;;;;0.40;0.30;;;11.30;99.90;;;;;;5108240;28;20531;-70
2021/01/29 07:29:59;;;;;;;0.40;0.30;;;11.30;99.90;;;;;;5083109;28;20078;-70
2021/01/29 07:32:25;;;;;;;0.85;0.63;;;11.30;99.90;;;;;;5024954;28;20485;-70
2021/01/29 07:34:52;;;;;;;0.77;0.70;;;11.30;99.90;;;;;;5026531;28;20168;-71
2021/01/29 07:37:33;;;;;;;1.67;0.47;;;11.30;99.90;;;;;;5065206;28;20071;-70
2021/01/29 07:40:31;;;;;;;1.75;0.40;;;11.40;99.90;;;;;;5099918;28;20449;-70
2021/01/29 07:43:14;;;;;;;0.75;0.40;;;11.40;99.90;;;;;;5082143;28;20047;-70
2021/01/29 07:45:43;;;;;;;1.20;0.20;;;11.60;99.90;;;;;;5103458;28;20528;-70
2021/01/29 07:48:39;;;;;;;0.43;0.35;;;11.60;99.90;;;;;;5106736;28;20229;-70
2021/01/29 07:51:30;;;;;;;0.60;0.50;;;11.50;99.90;;;;;;5108224;28;20051;-71
2021/01/29 07:54:31;;;;;;;1.05;0.35;;;11.50;99.90;;;;;;5103662;28;20143;-69
2021/01/29 07:57:06;;;;;;;1.92;0.60;;;11.40;99.90;;;;;;5107487;28;20090;-69
2021/01/29 07:59:50;;;;;;;0.68;0.40;;;11.40;99.90;;;;;;5107782;28;20154;-69
2021/01/29 08:02:35;;;;;;;4.40;0.52;;;11.50;99.90;;;;;;5106070;28;20423;-69
2021/01/29 08:05:16;;;;;;;0.90;0.40;;;11.50;99.90;;;;;;5105818;28;20059;-70
2021/01/29 08:07:51;;;;;;;1.17;0.30;;;11.50;99.90;;;;;;5107270;28;20071;-70
2021/01/29 08:10:31;;;;;;;0.57;0.40;;;11.60;99.90;;;;;;5104584;28;20044;-70
2021/01/29 08:13:16;;;;;;;3.55;0.30;;;11.50;99.90;;;;;;5107727;28;20129;-69
2021/01/29 08:15:59;;;;;;;0.45;0.38;;;11.50;99.90;;;;;;5106208;28;20424;-70
2021/01/29 08:19:04;;;;;;;0.45;0.40;;;11.60;99.90;;;;;;5106810;28;20101;-70
2021/01/29 08:21:36;;;;;;;0.30;0.30;;;11.60;99.90;;;;;;5089772;28;20048;-71
2021/01/29 08:24:21;;;;;;;1.98;0.40;;;11.60;99.90;;;;;;5098969;28;20052;-70
2021/01/29 08:26:50;;;;;;;0.40;0.40;;;11.70;99.90;;;;;;5111167;28;20487;-70
2021/01/29 08:29:44;;;;;;;1.30;0.60;;;11.70;99.90;;;;;;5098623;28;20097;-68
2021/01/29 08:32:32;;;;;;;1.10;0.47;;;11.60;99.90;;;;;;5099900;28;20105;-69
2021/01/29 08:35:18;;;;;;;0.55;0.38;;;11.70;99.90;;;;;;5111017;28;20040;-69
2021/01/29 08:37:58;;;;;;;0.43;0.32;;;11.70;99.90;;;;;;5111675;28;20109;-69
2021/01/29 08:40:52;;;;;;;1.00;0.50;;;11.70;99.90;;;;;;5106212;28;20051;-69
2021/01/29 08:43:40;;;;;;;1.73;0.50;;;11.70;99.90;;;;;;5109602;28;20040;-69
2021/01/29 08:46:10;;;;;;;2.00;0.60;;;11.70;99.90;;;;;;5111044;28;20424;-69
2021/01/29 08:48:51;;;;;;;3.47;0.50;;;11.60;99.90;;;;;;5107966;28;20064;-70
2021/01/29 08:51:53;;;;;;;2.42;0.63;;;11.60;99.90;;;;;;5111651;28;20048;-68
2021/01/29 08:54:50;;;;;;;1.27;0.45;;;11.60;99.90;;;;;;5100912;28;20044;-70
2021/01/29 08:57:24;;;;;;;3.20;0.70;;;11.60;99.90;;;;;;5109154;28;20379;-69
2021/01/29 08:59:55;;;;;;;2.95;1.45;;;11.70;99.90;;;;;;5108097;28;20040;-70
2021/01/29 09:02:53;;;;;;;1.40;0.82;;;11.70;99.90;;;;;;5105988;27;20071;-69
2021/01/29 09:05:24;;;;;;;1.48;0.60;;;11.90;99.90;;;;;;5112473;28;20047;-69
2021/01/29 09:08:04;;;;;;;4.22;0.90;;;11.90;99.90;;;;;;5107998;28;20062;-70
2021/01/29 09:10:44;;;;;;;1.77;1.00;;;11.90;99.80;;;;;;5110315;27;20048;-70
2021/01/29 09:13:17;;;;;;;2.90;0.75;;;12.00;99.60;;;;;;5101709;28;20080;-70
2021/01/29 09:15:45;;;;;;;7.63;1.02;;;12.00;98.80;;;;;;5108576;28;20071;-70
2021/01/29 09:18:31;;;;;;;3.43;0.50;;;12.10;98.40;;;;;;5101607;28;20054;-70
2021/01/29 09:21:09;;;;;;;5.40;0.95;;;12.10;97.00;;;;;;5111875;28;20313;-70
2021/01/29 09:23:46;;;;;;;2.35;0.50;;;12.20;96.20;;;;;;5104653;28;20135;-70
2021/01/29 09:26:27;;;;;;;3.63;1.00;;;12.20;96.20;;;;;;5106495;27;20043;-70
2021/01/29 09:29:29;;;;;;;1.45;0.47;;;12.20;95.30;;;;;;5106852;28;20116;-70
2021/01/29 09:32:00;;;;;;;3.67;0.93;;;12.10;94.20;;;;;;5087765;28;20048;-70
2021/01/29 09:34:39;;;;;;;6.05;1.00;;;12.20;94.40;;;;;;5108663;28;20044;-70
2021/01/29 09:37:12;;;;;;;5.45;1.10;;;12.20;94.00;;;;;;5102528;28;20101;-70
2021/01/29 09:40:04;;;;;;;5.13;0.90;;;12.20;93.70;;;;;;5109946;27;20158;-70
2021/01/29 09:42:53;;;;;;;5.68;1.15;;;12.20;93.40;;;;;;5108803;28;20043;-71
2021/01/29 09:45:26;;;;;;;7.13;1.25;;;12.20;93.00;;;;;;5098052;28;20134;-71
2021/01/29 09:48:02;;;;;;;6.80;1.27;;;12.20;92.90;;;;;;5110771;28;20128;-70
2021/01/29 09:50:31;;;;;;;3.63;0.90;;;12.20;92.90;;;;;;5108892;28;20104;-70
2021/01/29 09:53:03;;;;;;;7.32;1.13;;;12.20;92.80;;;;;;5108897;28;20089;-70
2021/01/29 09:55:48;;;;;;;3.58;0.85;;;12.20;93.00;;;;;;5111697;28;20077;-70
2021/01/29 09:58:36;;;;;;;11.18;1.48;;;12.20;92.30;;;;;;5104998;28;20055;-70
2021/01/29 10:01:13;;;;;;;4.97;0.95;;;12.30;92.50;;;;;;5105263;28;20083;-71
2021/01/29 10:03:55;;;;;;;3.55;1.00;;;12.20;92.40;;;;;;5110452;28;20040;-71
2021/01/29 10:06:34;;;;;;;6.18;0.82;;;12.30;92.40;;;;;;5106360;28;20071;-71
2021/01/29 10:09:09;;;;;;;3.80;0.80;;;12.30;92.50;;;;;;5106375;27;20092;-71
2021/01/29 10:11:41;;;;;;;1.85;0.75;;;12.30;92.30;;;;;;5112002;28;20085;-69
2021/01/29 10:14:29;;;;;;;5.40;1.10;;;12.30;92.60;;;;;;5107880;28;20079;-69
2021/01/29 10:17:08;;;;;;;8.27;1.33;;;12.30;92.40;;;;;;5106351;28;20485;-70
2021/01/29 10:19:49;;;;;;;7.82;1.00;;;12.30;92.50;;;;;;5106923;28;20056;-69
2021/01/29 10:22:34;;;;;;;5.97;0.88;;;12.20;92.10;;;;;;5108180;28;20047;-69
2021/01/29 10:25:28;;;;;;;7.90;1.13;;;12.30;91.90;;;;;;5103185;28;20051;-70
2021/01/29 10:28:15;;;;;;;6.07;1.23;;;12.30;92.00;;;;;;5102818;28;20047;-69
2021/01/29 10:30:47;;;;;;;11.85;1.30;;;12.40;91.70;;;;;;5104862;28;20479;-70
2021/01/29 10:33:19;;;;;;;3.90;1.10;;;12.40;91.50;;;;;;5102071;28;20127;-69
2021/01/29 10:36:00;;;;;;;4.90;1.00;;;12.50;91.70;;;;;;5101389;28;20097;-68
2021/01/29 10:38:49;;;;;;;8.63;1.92;;;12.50;90.70;;;;;;5103847;28;20036;-69
2021/01/29 10:41:31;;;;;;;6.75;1.17;;;12.70;90.60;;;;;;5100220;28;20546;-70
2021/01/29 10:44:07;;;;;;;9.10;1.40;;;12.70;90.00;;;;;;5101923;28;20082;-69
2021/01/29 10:47:15;;;;;;;3.70;0.88;;;12.70;89.50;;;;;;5094328;27;20044;-69
2021/01/29 10:50:06;;;;;;;4.90;1.05;;;13.00;89.30;;;;;;5097320;28;20126;-70
2021/01/29 10:52:43;;;;;;;5.13;1.13;;;12.80;89.70;;;;;;5092807;27;20056;-76
2021/01/29 10:55:25;;;;;;;4.85;0.77;;;12.70;90.10;;;;;;5092278;28;20457;-69
2021/01/29 10:58:16;;;;;;;3.58;0.85;;;13.00;89.50;;;;;;5090525;28;20056;-68
2021/01/29 11:00:49;;;;;;;4.53;0.93;;;13.40;87.50;;;;;;5094439;28;20567;-68
2021/01/29 11:03:21;;;;;;;4.68;0.77;;;13.40;87.40;;;;;;5089474;28;20062;-68
2021/01/29 11:05:49;;;;;;;3.85;0.80;;;12.90;88.10;;;;;;5091656;28;20124;-68
2021/01/29 11:08:29;;;;;;;3.78;0.95;;;12.80;90.00;;;;;;5093326;28;20056;-68
2021/01/29 11:11:15;;;;;;;3.70;1.00;;;12.70;89.00;;;;;;5093002;28;20379;-70
2021/01/29 11:13:54;;;;;;;3.08;0.95;;;12.60;89.30;;;;;;5092715;28;20567;-70
2021/01/29 11:16:29;;;;;;;5.72;0.98;;;12.60;89.20;;;;;;5090923;28;20060;-70
2021/01/29 11:19:02;;;;;;;2.33;0.82;;;12.60;88.70;;;;;;5089878;28;20058;-70
2021/01/29 11:21:44;;;;;;;6.18;1.33;;;12.70;88.70;;;;;;5093612;28;20051;-69
2021/01/29 11:24:35;;;;;;;10.20;1.27;;;12.70;86.90;;;;;;5091615;28;20085;-68
2021/01/29 11:27:19;;;;;;;10.18;1.13;;;12.80;86.90;;;;;;5091998;28;20403;-69
2021/01/29 11:29:52;;;;;;;8.27;1.35;;;12.70;86.00;;;;;;5090398;28;20548;-69
2021/01/29 11:32:38;;;;;;;4.60;1.08;;;12.90;84.70;;;;;;5088956;28;20483;-69
2021/01/29 11:35:36;;;;;;;8.85;1.40;;;13.00;85.00;;;;;;5091484;28;20043;-69
2021/01/29 11:38:34;;;;;;;3.45;1.25;;;13.30;83.50;;;;;;5089993;28;20609;-69
2021/01/29 11:41:08;;;;;;;5.97;0.82;;;13.30;80.90;;;;;;5069216;28;20084;-69
2021/01/29 11:43:45;;;;;;;7.53;1.40;;;13.10;81.90;;;;;;5089764;28;20142;-68
2021/01/29 11:46:34;;;;;;;2.05;0.70;;;13.10;82.40;;;;;;5092925;28;20167;-68
2021/01/29 11:49:19;;;;;;;3.72;1.17;;;13.10;82.60;;;;;;5088451;28;20127;-68
2021/01/29 11:51:51;;;;;;;4.20;0.70;;;13.40;81.80;;;;;;5089797;28;20447;-69
2021/01/29 11:54:39;;;;;;;2.88;1.00;;;13.20;80.80;;;;;;5090353;28;20471;-68
2021/01/29 11:57:21;;;;;;;5.18;0.90;;;13.30;81.40;;;;;;5089315;28;20159;-70
2021/01/29 11:59:59;;;;;;;2.03;0.65;;;13.30;80.80;;;;;;5091197;28;20142;-69
2021/01/29 12:02:36;;;;;;;7.25;1.30;;;13.50;80.40;;;;;;5090773;28;20048;-68
2021/01/29 12:05:35;;;;;;;6.15;1.10;;;13.30;81.00;;;;;;5091463;28;20055;-65
2021/01/29 12:08:24;;;;;;;8.68;1.48;;;13.00;81.60;;;;;;5037952;28;20152;-65
2021/01/29 12:11:15;;;;;;;5.03;1.48;;;12.90;82.00;;;;;;5091959;28;20166;-66
2021/01/29 12:14:04;;;;;;;10.95;1.75;;;12.90;81.90;;;;;;5090579;28;20562;-66
2021/01/29 12:16:35;;;;;;;10.25;1.42;;;12.80;83.50;;;;;;5090666;28;20494;-68
2021/01/29 12:19:06;;;;;;;6.80;1.50;;;12.70;84.50;;;;;;5090521;28;21261;-68
2021/01/29 12:21:42;;;;;;;5.13;1.48;;;12.70;84.50;;;;;;5091329;28;20056;-68
2021/01/29 12:24:21;;;;;;;5.63;0.80;;;12.70;85.30;;;;;;5093757;28;21285;-68
2021/01/29 12:27:00;;;;;;;7.32;1.08;;;12.50;85.10;;;;;;5093056;28;20056;-68
2021/01/29 12:30:12;;;;;;;7.93;1.25;;;12.50;87.50;;;;;;5090051;28;21209;-68
2021/01/29 12:33:01;;;;;;;5.28;1.13;;;13.20;84.80;;;;;;5066336;28;20143;-68
2021/01/29 12:35:38;;;;;;;5.07;1.00;;;13.60;83.40;;;;;;5088629;28;20044;-68
2021/01/29 12:38:43;;;;;;;5.25;1.00;;;13.50;82.50;;;;;;5090238;28;20146;-70
2021/01/29 12:41:27;;;;;;;6.28;1.02;;;13.80;81.70;;;;;;5086339;28;20135;-68
2021/01/29 12:44:09;;;;;;;6.50;1.27;;;14.30;81.30;;;;;;5094159;28;20142;-66
2021/01/29 12:47:13;;;;;;;7.90;1.20;;;14.10;80.70;;;;;;5087953;28;20140;-66
2021/01/29 12:50:20;;;;;;;11.25;1.75;;;13.60;81.50;;;;;;5088868;28;20070;-67
2021/01/29 12:52:53;;;;;;;11.32;1.85;;;13.00;82.10;;;;;;5087839;28;20075;-67
2021/01/29 12:55:31;;;;;;;7.22;1.50;;;12.90;83.50;;;;;;5088771;28;20412;-67
2021/01/29 12:58:09;;;;;;;10.65;1.70;;;12.80;84.70;;;;;;5090830;28;20060;-67
2021/01/29 13:00:40;;;;;;;10.73;1.60;;;12.60;86.40;;;;;;5088875;28;20142;-66
2021/01/29 13:03:07;;;;;;;5.72;1.30;;;12.30;90.80;;;;;;5089333;28;20048;-65
2021/01/29 13:05:51;;;;;;;5.88;1.25;;;12.10;90.80;;;;;;5090163;28;20152;-66
2021/01/29 13:08:42;;;;;;;7.78;1.75;;;11.80;91.70;;;;;;5089236;28;20134;-68
2021/01/29 13:11:11;;;;;;;7.80;1.52;;;11.30;95.70;;;;;;5090043;28;20043;-65
2021/01/29 13:13:52;;;;;;;9.45;1.80;;;11.10;98.20;;;;;;5093837;28;20082;-66
2021/01/29 13:16:26;;;;;;;10.35;1.55;;;10.90;99.90;;;;;;5091857;28;20076;-66
2021/01/29 13:19:02;;;;;;;4.57;1.05;;;10.90;99.90;;;;;;5093606;28;21243;-67
2021/01/29 13:21:47;;;;;;;21.38;2.35;;;11.00;99.90;;;;;;5092224;27;20552;-67
2021/01/29 13:24:40;;;;;;;11.23;2.13;;;11.30;99.10;;;;;;5094434;27;20124;-68
2021/01/29 13:27:12;;;;;;;6.15;1.48;;;11.50;98.30;;;;;;5089177;28;20541;-68
2021/01/29 13:29:40;;;;;;;8.68;1.40;;;11.70;96.30;;;;;;5093340;28;20047;-68
2021/01/29 13:32:14;;;;;;;9.10;2.78;;;12.00;95.60;;;;;;5092531;28;20192;-67
2021/01/29 13:34:43;;;;;;;1.90;0.90;;;12.40;94.20;;;;;;5092731;28;20052;-68
2021/01/29 13:37:24;;;;;;;9.27;1.10;;;12.40;91.60;;;;;;5094253;28;20079;-68
2021/01/29 13:40:04;;;;;;;8.70;1.48;;;12.50;90.70;;;;;;5093735;28;20550;-68
2021/01/29 13:42:34;;;;;;;7.68;1.55;;;12.60;91.60;;;;;;5092887;28;20134;-68
2021/01/29 13:45:03;;;;;;;9.75;1.85;;;12.50;91.20;;;;;;5093037;28;20151;-69
2021/01/29 13:47:34;;;;;;;8.15;1.40;;;12.30;91.00;;;;;;5093900;28;20039;-67
2021/01/29 13:50:32;;;;;;;5.47;0.80;;;12.20;91.60;;;;;;5092210;28;20159;-68
2021/01/29 13:53:01;;;;;;;3.08;1.00;;;12.10;91.90;;;;;;5090441;28;20095;-67
2021/01/29 13:55:53;;;;;;;6.47;1.53;;;12.10;91.60;;;;;;5097426;28;20497;-68
2021/01/29 13:58:38;;;;;;;4.10;0.80;;;12.00;92.20;;;;;;5100758;27;21627;-68